Time;durP1;ratioP1;P1;durP2;ratioP2;P2;SDS_P1;SDS_P2;PMS_P1;PMS_P2;Temp;Humidity;BMP_temperature;BMP_pressure;BME280_temperature;BME280_humidity;BME280_pressure;Samples;Min_cycle;Max_cycle;Signal;HPM_P1;HPM_P2
2022/06/10 00:02:09;;;;;;;;;;;;;;;10.38;89.16;99894.94;7873760;30;19934;-74
2022/06/10 00:06:12;;;;;;;;;;;;;;;10.28;89.17;99900.97;7877378;30;19973;-74
2022/06/10 00:10:14;;;;;;;;;;;;;;;10.23;89.77;99900.97;7876394;30;20343;-74
2022/06/10 00:14:15;;;;;;;;;;;;;;;10.22;90.00;99911.31;7875378;30;19988;-74
2022/06/10 00:18:17;;;;;;;;;;;;;;;10.21;89.96;99909.56;7879736;30;19929;-74
2022/06/10 00:22:19;;;;;;;;;;;;;;;10.22;89.94;99913.91;7888475;30;19933;-75
2022/06/10 00:26:20;;;;;;;;;;;;;;;10.23;90.11;99910.44;7872894;30;19940;-74
2022/06/10 00:30:28;;;;;;;;;;;;;;;10.20;90.24;99908.66;7891557;30;20037;-74
2022/06/10 00:34:30;;;;;;;;;;;;;;;10.17;89.67;99906.06;7874125;30;19934;-75
2022/06/10 00:38:31;;;;;;;;;;;;;;;10.18;89.62;99910.38;7876499;30;20021;-74
2022/06/10 00:42:35;;;;;;;;;;;;;;;10.17;89.76;99908.66;7890559;29;19981;-74
2022/06/10 00:46:37;;;;;;;;;;;;;;;10.10;89.58;99901.72;7890177;29;19936;-74
2022/06/10 00:50:38;;;;;;;;;;;;;;;10.07;89.50;99904.28;7875484;30;20393;-75
2022/06/10 00:54:43;;;;;;;;;;;;;;;10.06;89.66;99901.69;7879479;30;19929;-74
2022/06/10 00:58:52;;;;;;;;;;;;;;;9.95;89.76;99909.41;7878653;30;19929;-74
2022/06/10 01:02:56;;;;;;;;;;;;;;;9.87;89.72;99909.31;7874575;30;19933;-74
2022/06/10 01:06:58;;;;;;;;;;;;;;;9.87;89.56;99914.50;7873643;30;20028;-74
2022/06/10 01:11:18;;;;;;;;;;;;;;;9.79;89.86;99913.59;7880882;30;20016;-74
2022/06/10 01:15:39;;;;;;;;;;;;;;;9.75;90.35;99911.84;7893679;30;20307;-74
2022/06/10 01:20:03;;;;;;;;;;;;;;;9.72;90.38;99913.56;7887837;30;19941;-74
2022/06/10 01:24:21;;;;;;;;;;;;;;;9.72;90.75;99913.56;7877156;30;19970;-74
2022/06/10 01:28:31;;;;;;;;;;;;;;;9.73;90.84;99910.13;7879362;30;20392;-74
2022/06/10 01:32:40;;;;;;;;;;;;;;;9.70;90.73;99908.38;7880405;30;20018;-74
2022/06/10 01:37:05;;;;;;;;;;;;;;;9.65;90.79;99908.31;7883893;30;19973;-74
2022/06/10 01:41:20;;;;;;;;;;;;;;;9.60;90.04;99904.81;7882802;30;19961;-74
2022/06/10 01:45:50;;;;;;;;;;;;;;;9.57;90.29;99904.81;7880949;30;20022;-74
2022/06/10 01:50:00;;;;;;;;;;;;;;;9.56;91.04;99900.47;7883406;30;19965;-74
2022/06/10 01:54:08;;;;;;;;;;;;;;;9.55;91.02;99906.53;7891929;30;19929;-74
2022/06/10 01:58:13;;;;;;;;;;;;;;;9.54;90.44;99906.50;7880167;30;20077;-74
2022/06/10 02:02:18;;;;;;;;;;;;;;;9.53;90.50;99908.25;7899658;30;20020;-74
2022/06/10 02:06:19;;;;;;;;;;;;;;;9.51;90.74;99904.75;7882288;30;19934;-74
2022/06/10 02:10:36;;;;;;;;;;;;;;;9.46;90.82;99902.97;7887500;30;20060;-74
2022/06/10 02:14:45;;;;;;;;;;;;;;;9.41;90.79;99909.84;7882910;30;19973;-74
2022/06/10 02:18:46;;;;;;;;;;;;;;;9.37;90.76;99906.38;7904333;29;19989;-74
2022/06/10 02:22:48;;;;;;;;;;;;;;;9.30;90.35;99912.34;7882033;30;19936;-74
2022/06/10 02:26:50;;;;;;;;;;;;;;;9.20;90.75;99911.41;7882649;30;20491;-74
2022/06/10 02:31:02;;;;;;;;;;;;;;;9.19;90.99;99921.75;7886801;30;19930;-74
2022/06/10 02:35:06;;;;;;;;;;;;;;;9.14;90.68;99913.91;7883992;30;20347;-74
2022/06/10 02:39:11;;;;;;;;;;;;;;;9.11;90.98;99923.38;7885293;30;20028;-74
2022/06/10 02:43:25;;;;;;;;;;;;;;;9.08;90.52;99925.09;7888748;30;20343;-74
2022/06/10 02:47:45;;;;;;;;;;;;;;;9.09;90.99;99929.41;7869362;30;20322;-75
2022/06/10 02:51:48;;;;;;;;;;;;;;;9.05;91.01;99942.31;7881635;30;19961;-74
2022/06/10 02:55:49;;;;;;;;;;;;;;;8.98;91.11;99945.72;7900250;30;20029;-74
2022/06/10 03:04:15;;;;;;;;;;;;;;;8.94;91.36;99947.38;7882238;30;19961;-74
2022/06/10 03:08:25;;;;;;;;;;;;;;;8.95;91.32;99959.47;7879936;30;19929;-74
2022/06/10 03:12:26;;;;;;;;;;;;;;;8.95;90.90;99962.06;7860931;30;19973;-74
2022/06/10 03:16:33;;;;;;;;;;;;;;;8.95;90.84;99966.38;7884111;30;19961;-74
2022/06/10 03:20:49;;;;;;;;;;;;;;;8.92;90.95;99967.22;7889717;30;20045;-74
2022/06/10 03:24:51;;;;;;;;;;;;;;;8.88;90.71;99969.75;7879724;30;19930;-74
2022/06/10 03:29:01;;;;;;;;;;;;;;;8.83;91.13;99969.72;7882233;30;20016;-74
2022/06/10 03:33:15;;;;;;;;;;;;;;;8.76;90.93;99981.69;7874035;30;20403;-74
2022/06/10 03:37:18;;;;;;;;;;;;;;;8.74;91.22;99986.00;7893863;30;19941;-75
2022/06/10 03:41:24;;;;;;;;;;;;;;;8.76;91.56;99991.19;7879155;30;19934;-74
2022/06/10 03:45:28;;;;;;;;;;;;;;;8.77;91.35;99988.63;7872089;30;19940;-75
2022/06/10 03:49:31;;;;;;;;;;;;;;;8.78;90.78;99987.75;7876137;30;19957;-74
2022/06/10 03:53:32;;;;;;;;;;;;;;;8.80;90.89;99998.16;7876059;30;20032;-74
2022/06/10 03:57:39;;;;;;;;;;;;;;;8.80;90.73;99993.00;7876804;30;20279;-74
2022/06/10 04:01:40;;;;;;;;;;;;;;;8.81;90.60;99999.03;7892186;29;19973;-75
2022/06/10 04:05:42;;;;;;;;;;;;;;;8.83;90.46;100005.97;7874670;30;19970;-75
2022/06/10 04:10:04;;;;;;;;;;;;;;;8.88;90.80;100003.44;7874326;30;19938;-75
2022/06/10 04:14:05;;;;;;;;;;;;;;;8.94;91.25;100003.50;7877826;30;19965;-75
2022/06/10 04:18:07;;;;;;;;;;;;;;;9.01;92.13;100013.09;7873517;30;20054;-74
2022/06/10 04:22:09;;;;;;;;;;;;;;;9.12;91.87;100008.00;7875204;30;19930;-75
2022/06/10 04:26:10;;;;;;;;;;;;;;;9.25;92.19;100015.09;7876142;30;19936;-75
2022/06/10 04:30:33;;;;;;;;;;;;;;;9.32;92.75;100016.88;7879424;30;19930;-75
2022/06/10 04:34:36;;;;;;;;;;;;;;;9.46;92.67;100017.03;7875264;30;19937;-75
2022/06/10 04:38:37;;;;;;;;;;;;;;;9.57;92.63;100011.09;7874832;30;20398;-75
2022/06/10 04:42:40;;;;;;;;;;;;;;;9.73;92.54;100017.31;7873665;30;19964;-75
2022/06/10 04:46:42;;;;;;;;;;;;;;;9.90;93.17;100013.13;7892508;29;20029;-74
2022/06/10 04:50:44;;;;;;;;;;;;;;;10.07;92.93;100008.06;7876630;30;19933;-75
2022/06/10 04:54:46;;;;;;;;;;;;;;;10.23;91.83;100012.56;7872394;30;19961;-75
2022/06/10 04:58:47;;;;;;;;;;;;;;;10.41;91.50;100014.41;7874812;30;19930;-75
2022/06/10 05:02:49;;;;;;;;;;;;;;;10.65;91.52;100007.59;7877188;30;20272;-75
2022/06/10 05:06:50;;;;;;;;;;;;;;;10.86;90.65;100005.09;7875254;30;19929;-74
2022/06/10 05:10:52;;;;;;;;;;;;;;;11.04;89.92;100007.78;7870609;30;20005;-74
2022/06/10 05:14:53;;;;;;;;;;;;;;;11.29;89.59;100016.50;7877696;30;19972;-76
2022/06/10 05:18:55;;;;;;;;;;;;;;;11.55;89.30;100013.09;7873598;30;19980;-74
2022/06/10 05:22:56;;;;;;;;;;;;;;;11.81;87.86;100014.03;7886210;30;20000;-76
2022/06/10 05:26:58;;;;;;;;;;;;;;;12.12;86.76;100021.84;7875152;30;20064;-74
2022/06/10 05:31:00;;;;;;;;;;;;;;;12.47;86.15;100020.06;7876963;30;19929;-75
2022/06/10 05:35:01;;;;;;;;;;;;;;;12.96;84.66;100020.78;7878966;30;19929;-75
2022/06/10 05:39:03;;;;;;;;;;;;;;;13.44;83.34;100029.25;7874766;30;19960;-75
2022/06/10 05:43:04;;;;;;;;;;;;;;;13.97;80.85;100020.19;7890641;29;19930;-76
2022/06/10 05:47:14;;;;;;;;;;;;;;;14.49;78.57;100027.59;7874798;30;19938;-76
2022/06/10 05:51:16;;;;;;;;;;;;;;;14.96;76.37;100029.69;7875291;30;20000;-76
2022/06/10 05:55:18;;;;;;;;;;;;;;;15.48;74.48;100031.63;7858693;30;19967;-76
2022/06/10 05:59:19;;;;;;;;;;;;;;;15.86;72.52;100038.09;7858847;30;20049;-76
2022/06/10 06:03:21;;;;;;;;;;;;;;;16.27;70.16;100040.88;7866863;30;19930;-76
2022/06/10 06:07:25;;;;;;;;;;;;;;;16.78;69.27;100043.50;7889723;30;19930;-76
2022/06/10 06:11:27;;;;;;;;;;;;;;;17.17;67.73;100035.72;7877304;30;19973;-77
2022/06/10 06:15:28;;;;;;;;;;;;;;;17.77;65.21;100038.81;7876200;30;20040;-76
2022/06/10 06:19:31;;;;;;;;;;;;;;;18.29;63.48;100034.00;7891330;29;20367;-76
2022/06/10 06:23:33;;;;;;;;;;;;;;;18.80;61.91;100037.06;7882673;30;19976;-76
2022/06/10 06:27:34;;;;;;;;;;;;;;;19.07;60.64;100037.22;7894849;30;20024;-75
2022/06/10 06:31:35;;;;;;;;;;;;;;;19.33;61.05;100045.19;7897355;30;20404;-77
2022/06/10 06:35:38;;;;;;;;;;;;;;;19.54;60.22;100041.94;7883920;30;19930;-77
2022/06/10 06:39:40;;;;;;;;;;;;;;;19.76;59.76;100043.94;7882230;30;19941;-76
2022/06/10 06:43:42;;;;;;;;;;;;;;;19.96;58.54;100046.78;7883645;30;19941;-76
2022/06/10 06:47:44;;;;;;;;;;;;;;;20.05;58.74;100050.88;7880723;30;21484;-76
2022/06/10 06:51:46;;;;;;;;;;;;;;;20.24;58.34;100044.09;7878563;30;19929;-76
2022/06/10 06:55:47;;;;;;;;;;;;;;;20.46;58.37;100045.13;7878798;30;19929;-76
2022/06/10 06:59:50;;;;;;;;;;;;;;;20.67;56.82;100053.22;7880055;30;20145;-75
2022/06/10 07:03:51;;;;;;;;;;;;;;;21.02;54.98;100039.63;7893713;30;19953;-77
2022/06/10 07:07:53;;;;;;;;;;;;;;;21.09;54.56;100046.38;7878830;30;20286;-77
2022/06/10 07:11:55;;;;;;;;;;;;;;;21.06;53.18;100040.38;7885295;30;19957;-76
2022/06/10 07:15:57;;;;;;;;;;;;;;;21.14;54.56;100043.56;7895023;29;20032;-76
2022/06/10 07:19:59;;;;;;;;;;;;;;;21.12;55.44;100048.91;7878045;30;20298;-76
2022/06/10 07:24:00;;;;;;;;;;;;;;;21.30;54.40;100055.31;7880817;30;19929;-76
2022/06/10 07:28:02;;;;;;;;;;;;;;;21.57;54.98;100057.84;7882689;30;20335;-77
2022/06/10 07:32:04;;;;;;;;;;;;;;;21.75;54.35;100050.97;7882103;30;19936;-76
2022/06/10 07:36:06;;;;;;;;;;;;;;;22.08;53.73;100046.13;7897019;29;20460;-77
2022/06/10 07:41:56;;;;;;;;;;;;;;;22.33;52.43;100046.84;7877457;30;20072;-77
2022/06/10 07:44:48;;;;;;;;;;;;;;;22.70;52.61;100045.25;7876518;30;19988;-76
2022/06/10 07:48:50;;;;;;;;;;;;;;;23.01;51.65;100035.06;7893312;30;19942;-76
2022/06/10 07:52:52;;;;;;;;;;;;;;;22.94;52.04;100046.00;7875949;30;19969;-76
2022/06/10 07:56:53;;;;;;;;;;;;;;;22.97;50.11;100037.91;7874220;30;19929;-76
2022/06/10 08:00:54;;;;;;;;;;;;;;;22.94;50.72;100032.75;7873271;30;20049;-76
2022/06/10 08:04:56;;;;;;;;;;;;;;;23.00;50.81;100028.06;7890309;30;19937;-76
2022/06/10 08:08:57;;;;;;;;;;;;;;;23.22;50.33;100035.88;7871889;30;19988;-76
2022/06/10 08:12:59;;;;;;;;;;;;;;;23.46;49.56;100040.03;7874120;30;19973;-76
2022/06/10 08:17:04;;;;;;;;;;;;;;;23.61;49.15;100046.44;7879964;30;19930;-77
2022/06/10 08:25:25;;;;;;;;;;;;;;;23.66;47.79;100035.59;7872855;30;19933;-77
2022/06/10 08:29:27;;;;;;;;;;;;;;;23.86;48.02;100043.44;7877274;30;20032;-77
2022/06/10 08:33:28;;;;;;;;;;;;;;;23.94;46.51;100028.03;7893360;29;20447;-77
2022/06/10 08:37:30;;;;;;;;;;;;;;;24.10;46.52;100034.31;7863323;30;20040;-77
2022/06/10 08:41:41;;;;;;;;;;;;;;;24.32;46.04;100036.78;7880154;30;19937;-77
2022/06/10 08:45:51;;;;;;;;;;;;;;;24.45;45.03;100031.72;7879905;30;20331;-76
2022/06/10 08:50:10;;;;;;;;;;;;;;;24.47;43.42;100043.09;7890551;30;19930;-76
2022/06/10 08:54:14;;;;;;;;;;;;;;;24.71;45.38;100033.84;7875958;30;19930;-76
2022/06/10 08:58:25;;;;;;;;;;;;;;;24.48;44.18;100039.50;7868716;30;19961;-77
2022/06/10 09:02:32;;;;;;;;;;;;;;;23.30;44.88;100038.16;7873853;30;19930;-77
2022/06/10 09:06:53;;;;;;;;;;;;;;;22.52;45.97;100031.91;7874397;30;20409;-76
2022/06/10 09:11:05;;;;;;;;;;;;;;;22.66;48.01;100031.31;7892910;30;20510;-76
2022/06/10 09:15:07;;;;;;;;;;;;;;;23.22;45.66;100035.88;7872123;30;20558;-76
2022/06/10 09:19:14;;;;;;;;;;;;;;;23.59;43.02;100034.19;7869588;30;19938;-76
2022/06/10 09:23:19;;;;;;;;;;;;;;;24.16;42.38;100034.94;7854884;30;20030;-76
2022/06/10 09:27:26;;;;;;;;;;;;;;;24.68;43.25;100041.13;7868008;30;19940;-77
2022/06/10 09:31:47;;;;;;;;;;;;;;;25.08;42.90;100028.41;7886766;29;20030;-77
2022/06/10 09:35:53;;;;;;;;;;;;;;;25.22;40.31;100029.41;7876359;30;19929;-76
2022/06/10 09:44:25;;;;;;;;;;;;;;;25.36;41.54;100031.31;7890363;29;19934;-77
2022/06/10 09:48:43;;;;;;;;;;;;;;;25.25;41.94;100031.03;7901629;30;19929;-77
2022/06/10 09:52:44;;;;;;;;;;;;;;;24.40;41.52;100031.06;7866631;30;20020;-76
2022/06/10 09:56:57;;;;;;;;;;;;;;;23.78;43.21;100032.38;7882971;30;19988;-77
2022/06/10 10:01:04;;;;;;;;;;;;;;;23.22;45.27;100025.28;7876938;30;20445;-77
2022/06/10 10:05:13;;;;;;;;;;;;;;;23.49;46.49;100020.47;7877318;30;19934;-76
2022/06/10 10:09:20;;;;;;;;;;;;;;;24.27;44.88;100027.31;7877105;30;20032;-76
2022/06/10 10:13:35;;;;;;;;;;;;;;;24.63;40.78;100022.78;7873565;30;20323;-77
2022/06/10 10:17:46;;;;;;;;;;;;;;;24.83;39.85;100016.44;7872000;30;19941;-77
2022/06/10 10:21:59;;;;;;;;;;;;;;;24.78;39.66;100018.47;7871141;30;19965;-77
2022/06/10 10:26:04;;;;;;;;;;;;;;;24.96;38.92;100008.66;7873274;30;20318;-76
2022/06/10 10:30:14;;;;;;;;;;;;;;;25.28;39.97;99998.94;7871615;30;20559;-77
2022/06/10 10:34:20;;;;;;;;;;;;;;;25.29;39.16;100003.31;7867419;30;19933;-76
2022/06/10 10:38:36;;;;;;;;;;;;;;;25.27;37.00;100003.41;7886664;30;20619;-77
2022/06/10 10:42:40;;;;;;;;;;;;;;;25.39;38.05;99996.56;7893511;29;20013;-78
2022/06/10 10:46:56;;;;;;;;;;;;;;;25.61;37.55;99996.22;7873763;30;19929;-78
2022/06/10 10:51:00;;;;;;;;;;;;;;;25.63;35.69;99988.13;7890828;29;20078;-77
2022/06/10 10:55:11;;;;;;;;;;;;;;;25.75;38.23;99988.34;7890300;29;20519;-77
2022/06/10 10:59:34;;;;;;;;;;;;;;;26.12;38.04;99988.84;7893486;30;19941;-77
2022/06/10 11:03:49;;;;;;;;;;;;;;;26.49;37.07;99987.56;7880489;30;19973;-77
2022/06/10 11:08:10;;;;;;;;;;;;;;;26.55;37.38;99991.63;7878851;30;19937;-77
2022/06/10 11:12:13;;;;;;;;;;;;;;;26.80;38.23;99987.41;7875591;30;19940;-78
2022/06/10 11:16:36;;;;;;;;;;;;;;;26.92;36.91;99982.25;7877301;30;19929;-77
2022/06/10 11:20:39;;;;;;;;;;;;;;;27.14;35.67;99981.81;7876185;30;20001;-78
2022/06/10 11:24:43;;;;;;;;;;;;;;;27.03;35.96;99987.81;7877891;30;20750;-77
2022/06/10 11:28:46;;;;;;;;;;;;;;;27.05;33.79;99984.06;7877761;30;20571;-77
2022/06/10 11:32:47;;;;;;;;;;;;;;;26.89;33.01;99975.28;7872880;30;20411;-76
2022/06/10 11:36:50;;;;;;;;;;;;;;;27.10;35.15;99979.31;7875018;30;19969;-77
2022/06/10 11:40:53;;;;;;;;;;;;;;;27.34;35.89;99968.91;7873012;30;20017;-77
2022/06/10 11:45:18;;;;;;;;;;;;;;;27.47;34.13;99968.97;7885356;29;19929;-75
2022/06/10 11:49:37;;;;;;;;;;;;;;;27.45;34.81;99965.53;7873517;30;20395;-77
2022/06/10 11:53:47;;;;;;;;;;;;;;;27.15;34.14;99957.72;7889671;30;19940;-77
2022/06/10 12:02:42;;;;;;;;;;;;;;;26.17;35.66;99954.81;7874271;30;19930;-77
2022/06/10 12:06:48;;;;;;;;;;;;;;;26.50;34.34;99955.50;7858314;30;19995;-76
2022/06/10 12:11:08;;;;;;;;;;;;;;;26.50;34.28;99934.19;7875208;30;20032;-77
2022/06/10 12:15:30;;;;;;;;;;;;;;;26.56;35.21;99932.94;7894042;30;19964;-76
2022/06/10 12:19:46;;;;;;;;;;;;;;;26.95;34.65;99926.94;7880093;30;20036;-76
2022/06/10 12:23:48;;;;;;;;;;;;;;;27.08;34.93;99933.22;7871196;30;20588;-76
2022/06/10 12:28:03;;;;;;;;;;;;;;;27.07;34.85;99931.50;7878347;30;19953;-77
2022/06/10 12:32:18;;;;;;;;;;;;;;;26.42;34.46;99930.28;7872101;30;19937;-76
2022/06/10 12:36:22;;;;;;;;;;;;;;;26.25;36.36;99931.28;7876631;30;20517;-77
2022/06/10 12:40:38;;;;;;;;;;;;;;;26.38;36.65;99918.09;7874967;30;19961;-76
2022/06/10 12:44:42;;;;;;;;;;;;;;;26.62;35.45;99918.41;7890689;30;20032;-77
2022/06/10 12:48:46;;;;;;;;;;;;;;;26.79;35.90;99919.06;7874162;30;19929;-76
2022/06/10 12:52:54;;;;;;;;;;;;;;;27.06;35.53;99913.81;7873676;30;19963;-76
2022/06/10 12:57:22;;;;;;;;;;;;;;;27.10;33.93;99920.66;7874390;30;20728;-74
2022/06/10 13:01:39;;;;;;;;;;;;;;;26.57;33.47;99916.03;7872996;30;20040;-74
2022/06/10 13:05:43;;;;;;;;;;;;;;;26.66;36.33;99909.25;7872695;30;19930;-74
2022/06/10 13:09:44;;;;;;;;;;;;;;;26.99;35.12;99904.47;7873048;30;19935;-76
2022/06/10 13:13:45;;;;;;;;;;;;;;;27.31;35.18;99915.78;7875638;30;19981;-76
2022/06/10 13:18:02;;;;;;;;;;;;;;;27.51;33.68;99903.78;7890580;30;19931;-75
2022/06/10 13:22:23;;;;;;;;;;;;;;;27.06;32.47;99904.97;7882766;30;20017;-75
2022/06/10 13:26:26;;;;;;;;;;;;;;;27.37;33.09;99901.16;7878551;30;20494;-76
2022/06/10 13:30:29;;;;;;;;;;;;;;;27.65;32.81;99903.75;7881507;30;20406;-76
2022/06/10 13:34:33;;;;;;;;;;;;;;;27.75;33.30;99898.66;7878801;30;19937;-75
2022/06/10 13:38:35;;;;;;;;;;;;;;;28.10;33.08;99898.06;7893062;30;19929;-76
2022/06/10 13:42:39;;;;;;;;;;;;;;;28.00;31.46;99897.81;7882687;30;19929;-76
2022/06/10 13:46:41;;;;;;;;;;;;;;;28.22;31.65;99889.22;7892085;29;19929;-76
2022/06/10 13:55:31;;;;;;;;;;;;;;;28.09;30.90;99893.69;7896960;30;19980;-76
2022/06/10 13:59:32;;;;;;;;;;;;;;;27.98;31.27;99895.25;7876305;30;20712;-76
2022/06/10 14:03:42;;;;;;;;;;;;;;;27.49;31.28;99891.50;7890033;29;19930;-75
2022/06/10 14:07:43;;;;;;;;;;;;;;;27.58;32.47;99888.22;7874740;30;19964;-75
2022/06/10 14:11:55;;;;;;;;;;;;;;;27.39;31.54;99885.91;7882532;30;19929;-75
2022/06/10 14:15:58;;;;;;;;;;;;;;;27.39;33.58;99880.56;7874847;30;20328;-76
2022/06/10 14:20:01;;;;;;;;;;;;;;;27.32;32.64;99884.63;7874686;30;19937;-75
2022/06/10 14:24:04;;;;;;;;;;;;;;;27.48;32.40;99887.13;7883655;30;20012;-76
2022/06/10 14:28:08;;;;;;;;;;;;;;;27.67;32.80;99882.31;7877853;30;19930;-76
2022/06/10 14:32:27;;;;;;;;;;;;;;;27.81;33.04;99868.88;7875475;30;20382;-76
2022/06/10 14:36:30;;;;;;;;;;;;;;;27.63;33.09;99862.94;7877328;30;19941;-76
2022/06/10 14:40:31;;;;;;;;;;;;;;;27.76;33.67;99862.13;7877776;30;20326;-76
2022/06/10 14:44:50;;;;;;;;;;;;;;;27.86;34.67;99868.56;7873651;30;20044;-75
2022/06/10 14:48:54;;;;;;;;;;;;;;;27.47;31.80;99872.06;7873887;30;19930;-76
2022/06/10 14:52:56;;;;;;;;;;;;;;;27.18;32.90;99861.50;7874359;30;20000;-76
2022/06/10 14:56:58;;;;;;;;;;;;;;;27.36;34.05;99864.78;7871347;30;19930;-76
2022/06/10 15:00:59;;;;;;;;;;;;;;;27.45;32.84;99863.31;7893286;29;19941;-75
2022/06/10 15:09:27;;;;;;;;;;;;;;;26.47;34.34;99849.16;7886397;29;20689;-75
2022/06/10 15:13:31;;;;;;;;;;;;;;;26.62;35.15;99850.00;7870613;30;19930;-75
2022/06/10 15:17:33;;;;;;;;;;;;;;;26.79;33.81;99844.44;7872420;30;20754;-74
2022/06/10 15:21:36;;;;;;;;;;;;;;;27.18;34.86;99845.50;7882459;29;20814;-75
2022/06/10 15:25:39;;;;;;;;;;;;;;;27.61;35.08;99843.50;7872927;30;19941;-75
2022/06/10 15:29:40;;;;;;;;;;;;;;;27.78;34.28;99834.38;7870994;30;19930;-75
2022/06/10 15:33:42;;;;;;;;;;;;;;;27.86;33.73;99829.38;7870663;30;19993;-75
2022/06/10 15:42:06;;;;;;;;;;;;;;;27.32;32.96;99831.28;7869529;30;19930;-75
2022/06/10 15:46:13;;;;;;;;;;;;;;;27.57;34.92;99842.00;7880729;30;19940;-74
2022/06/10 15:50:14;;;;;;;;;;;;;;;27.60;33.69;99840.94;7898134;29;19930;-75
2022/06/10 15:54:18;;;;;;;;;;;;;;;27.08;35.08;99833.72;7872719;30;20429;-75
2022/06/10 15:58:22;;;;;;;;;;;;;;;26.53;36.68;99841.72;7873429;30;19961;-75
2022/06/10 16:02:25;;;;;;;;;;;;;;;26.06;36.50;99818.88;7870151;30;19937;-74
2022/06/10 16:06:27;;;;;;;;;;;;;;;25.68;37.26;99827.38;7870144;30;19936;-75
2022/06/10 16:10:30;;;;;;;;;;;;;;;25.39;37.36;99833.50;7878612;30;19974;-75
2022/06/10 16:14:34;;;;;;;;;;;;;;;25.18;39.78;99825.84;7875314;30;19929;-75
2022/06/10 16:18:38;;;;;;;;;;;;;;;25.55;41.46;99821.88;7870473;30;20659;-76
2022/06/10 16:22:39;;;;;;;;;;;;;;;25.66;39.65;99818.56;7887438;29;19980;-75
2022/06/10 16:26:41;;;;;;;;;;;;;;;25.46;40.10;99821.56;7868079;30;20032;-75
2022/06/10 16:30:44;;;;;;;;;;;;;;;25.11;42.58;99820.94;7872661;30;19940;-75
2022/06/10 16:34:46;;;;;;;;;;;;;;;24.72;42.69;99819.56;7865019;30;20424;-75
2022/06/10 16:38:48;;;;;;;;;;;;;;;24.45;43.91;99814.00;7888450;30;20055;-75
2022/06/10 16:42:49;;;;;;;;;;;;;;;24.29;43.81;99813.13;7873771;30;20246;-75
2022/06/10 16:46:55;;;;;;;;;;;;;;;24.21;44.99;99817.94;7876054;30;19956;-76
2022/06/10 16:50:57;;;;;;;;;;;;;;;24.24;44.32;99808.03;7891454;30;19996;-76
2022/06/10 16:55:19;;;;;;;;;;;;;;;24.29;43.77;99807.81;7873317;30;19930;-76
2022/06/10 16:59:23;;;;;;;;;;;;;;;24.27;44.21;99809.66;7875070;30;19929;-76
2022/06/10 17:03:25;;;;;;;;;;;;;;;24.28;42.40;99809.56;7877947;30;19930;-76
2022/06/10 17:07:29;;;;;;;;;;;;;;;24.28;41.54;99812.22;7873560;30;20393;-75
2022/06/10 17:11:39;;;;;;;;;;;;;;;24.31;43.81;99809.44;7872859;30;19934;-76
2022/06/10 17:15:40;;;;;;;;;;;;;;;24.36;41.71;99811.84;7878352;30;20053;-76
2022/06/10 17:19:44;;;;;;;;;;;;;;;24.25;43.68;99808.88;7888580;29;19936;-76
2022/06/10 17:23:46;;;;;;;;;;;;;;;24.16;43.33;99814.66;7892491;29;19930;-76
2022/06/10 17:27:47;;;;;;;;;;;;;;;24.07;42.43;99811.59;7869314;30;19970;-75
2022/06/10 17:31:48;;;;;;;;;;;;;;;24.07;43.04;99816.03;7876540;30;19977;-76
2022/06/10 17:35:51;;;;;;;;;;;;;;;24.06;41.60;99815.19;7882020;30;19929;-76
2022/06/10 17:39:59;;;;;;;;;;;;;;;23.98;42.84;99821.81;7876089;30;19979;-76
2022/06/10 17:44:03;;;;;;;;;;;;;;;23.95;42.78;99819.31;7868320;30;19929;-76
2022/06/10 17:48:05;;;;;;;;;;;;;;;23.83;45.09;99814.66;7875986;30;19934;-76
2022/06/10 17:52:10;;;;;;;;;;;;;;;23.67;45.65;99823.41;7880961;30;19976;-76
2022/06/10 17:56:13;;;;;;;;;;;;;;;23.45;46.75;99820.94;7886487;30;20251;-76
2022/06/10 18:00:24;;;;;;;;;;;;;;;23.41;47.41;99816.75;7880297;30;20612;-75
2022/06/10 18:04:25;;;;;;;;;;;;;;;23.30;47.61;99821.72;7881293;30;19930;-76
2022/06/10 18:08:30;;;;;;;;;;;;;;;23.30;45.41;99824.34;7892601;30;19934;-76
2022/06/10 18:12:33;;;;;;;;;;;;;;;23.31;44.95;99827.88;7882112;30;20206;-76
2022/06/10 18:16:38;;;;;;;;;;;;;;;23.26;45.95;99824.59;7881272;30;19961;-76
2022/06/10 18:20:41;;;;;;;;;;;;;;;23.16;45.00;99826.81;7902912;29;20433;-75
2022/06/10 18:24:42;;;;;;;;;;;;;;;23.01;47.46;99828.47;7880462;30;19930;-76
2022/06/10 18:28:44;;;;;;;;;;;;;;;22.85;48.79;99820.38;7877688;30;19973;-76
2022/06/10 18:32:45;;;;;;;;;;;;;;;22.73;49.17;99820.06;7882321;30;19940;-76
2022/06/10 18:36:47;;;;;;;;;;;;;;;22.56;50.71;99816.41;7885135;30;19934;-75
2022/06/10 18:40:49;;;;;;;;;;;;;;;22.36;51.97;99821.78;7897944;29;20356;-75
2022/06/10 18:44:50;;;;;;;;;;;;;;;22.15;53.02;99817.47;7883401;30;19969;-77
2022/06/10 18:48:52;;;;;;;;;;;;;;;21.88;53.78;99816.88;7879670;30;20007;-76
2022/06/10 18:52:54;;;;;;;;;;;;;;;21.67;55.75;99818.66;7879643;30;20028;-76
2022/06/10 18:56:56;;;;;;;;;;;;;;;21.49;57.53;99814.16;7881477;30;19940;-76
2022/06/10 19:00:59;;;;;;;;;;;;;;;21.33;56.94;99814.78;7879013;30;19929;-76
2022/06/10 19:05:00;;;;;;;;;;;;;;;21.20;56.66;99818.00;7886842;30;19925;-76
2022/06/10 19:09:03;;;;;;;;;;;;;;;21.03;57.56;99819.53;7876757;30;20387;-76
2022/06/10 19:13:07;;;;;;;;;;;;;;;20.88;58.88;99820.16;7893619;30;19946;-75
2022/06/10 19:17:22;;;;;;;;;;;;;;;20.70;59.46;99820.88;7881025;30;19929;-76
2022/06/10 19:21:27;;;;;;;;;;;;;;;20.45;61.87;99823.56;7879802;30;20423;-76
2022/06/10 19:25:32;;;;;;;;;;;;;;;20.22;62.93;99825.25;7895539;30;19930;-76
2022/06/10 19:29:33;;;;;;;;;;;;;;;19.94;62.37;99829.84;7875768;30;19940;-75
2022/06/10 19:33:41;;;;;;;;;;;;;;;19.73;61.63;99827.94;7898637;29;19973;-75
2022/06/10 19:37:42;;;;;;;;;;;;;;;19.52;62.17;99832.13;7876138;30;19961;-75
2022/06/10 19:41:44;;;;;;;;;;;;;;;19.24;63.01;99835.69;7875921;30;19930;-74
2022/06/10 19:45:47;;;;;;;;;;;;;;;19.01;64.55;99840.81;7874260;30;19934;-73
2022/06/10 19:49:51;;;;;;;;;;;;;;;18.76;65.46;99839.88;7880932;30;19929;-73
2022/06/10 19:53:52;;;;;;;;;;;;;;;18.53;67.20;99838.75;7864976;30;19930;-74
2022/06/10 19:57:55;;;;;;;;;;;;;;;18.30;68.51;99854.31;7873543;30;19964;-74
2022/06/10 20:01:56;;;;;;;;;;;;;;;18.18;68.23;99852.06;7875922;30;21182;-75
2022/06/10 20:05:59;;;;;;;;;;;;;;;18.01;69.03;99858.66;7881785;30;19965;-74
2022/06/10 20:10:02;;;;;;;;;;;;;;;17.91;69.67;99862.41;7868062;30;19930;-73
2022/06/10 20:14:04;;;;;;;;;;;;;;;17.81;71.24;99860.94;7872483;30;19965;-73
2022/06/10 20:18:14;;;;;;;;;;;;;;;17.74;71.27;99860.22;7874656;30;19929;-73
2022/06/10 20:22:18;;;;;;;;;;;;;;;17.68;71.38;99859.53;7873286;30;19980;-73
2022/06/10 20:26:22;;;;;;;;;;;;;;;17.59;72.30;99862.34;7874046;30;20020;-74
2022/06/10 20:30:24;;;;;;;;;;;;;;;17.55;72.73;99865.97;7874615;30;20009;-74
2022/06/10 20:34:28;;;;;;;;;;;;;;;17.50;73.13;99866.09;7876408;30;19961;-74
2022/06/10 20:38:31;;;;;;;;;;;;;;;17.39;73.52;99862.84;7896958;29;20024;-73
2022/06/10 20:42:33;;;;;;;;;;;;;;;17.25;74.19;99862.34;7876079;30;19973;-73
2022/06/10 20:46:38;;;;;;;;;;;;;;;17.14;73.46;99862.59;7864315;30;19933;-73
2022/06/10 20:50:41;;;;;;;;;;;;;;;16.96;74.17;99871.75;7875881;30;19950;-72
2022/06/10 20:54:43;;;;;;;;;;;;;;;16.81;73.77;99870.31;7868285;30;20328;-72
2022/06/10 20:58:44;;;;;;;;;;;;;;;16.68;74.24;99871.47;7867452;30;20016;-72
2022/06/10 21:02:48;;;;;;;;;;;;;;;16.51;75.42;99869.19;7871031;30;20628;-72
2022/06/10 21:11:11;;;;;;;;;;;;;;;16.33;76.22;99869.56;7875743;30;19997;-72
2022/06/10 21:15:15;;;;;;;;;;;;;;;16.24;76.89;99875.84;7873288;30;19930;-72
2022/06/10 21:19:18;;;;;;;;;;;;;;;16.13;77.24;99871.72;7872966;30;20634;-72
2022/06/10 21:23:22;;;;;;;;;;;;;;;16.06;77.47;99875.34;7878612;30;20476;-72
2022/06/10 21:27:25;;;;;;;;;;;;;;;15.94;77.21;99885.16;7869690;30;20024;-73
2022/06/10 21:31:31;;;;;;;;;;;;;;;15.80;77.47;99881.03;7877045;30;19958;-72
2022/06/10 21:35:34;;;;;;;;;;;;;;;15.66;77.62;99884.78;7876582;30;19976;-73
2022/06/10 21:39:38;;;;;;;;;;;;;;;15.52;77.56;99889.34;7862588;30;20312;-72
2022/06/10 21:48:04;;;;;;;;;;;;;;;15.34;79.05;99884.41;7894310;30;19953;-72
2022/06/10 21:52:24;;;;;;;;;;;;;;;15.27;79.53;99894.13;7881788;30;19930;-72
2022/06/10 21:56:28;;;;;;;;;;;;;;;15.17;80.14;99889.91;7880384;30;20317;-72